createdAt,value
2022-08-17T00:01:51.397Z,21.60
2022-08-17T00:04:19.329Z,21.50
2022-08-17T00:06:49.496Z,21.40
2022-08-17T00:09:19.069Z,21.50
2022-08-17T00:12:35.050Z,21.50
2022-08-17T00:14:35.929Z,21.50
2022-08-17T00:17:04.466Z,21.50
2022-08-17T00:19:32.563Z,21.40
2022-08-17T00:22:32.472Z,21.40
2022-08-17T00:24:50.142Z,21.30
2022-08-17T00:27:17.156Z,21.30
2022-08-17T00:29:45.629Z,21.20
2022-08-17T00:33:13.740Z,21.10
2022-08-17T00:35:00.161Z,21.20
2022-08-17T00:37:26.942Z,21.30
2022-08-17T00:39:53.791Z,21.30
2022-08-17T00:42:20.628Z,21.30
2022-08-17T00:44:47.380Z,21.30
2022-08-17T00:47:14.135Z,21.20
2022-08-17T00:49:40.881Z,21.10
2022-08-17T00:52:15.459Z,21.20
2022-08-17T00:54:46.435Z,21.00
2022-08-17T00:57:21.072Z,21.00
2022-08-17T01:00:01.950Z,21.10
2022-08-17T01:02:42.061Z,21.20
2022-08-17T01:05:18.537Z,21.10
2022-08-17T01:07:47.673Z,21.00
2022-08-17T01:10:57.494Z,21.00
2022-08-17T01:13:04.016Z,21.00
2022-08-17T01:15:33.856Z,21.00
2022-08-17T01:18:00.513Z,21.00
2022-08-17T01:20:27.473Z,21.00
2022-08-17T01:22:54.331Z,20.90
2022-08-17T01:25:22.134Z,20.90
2022-08-17T01:27:49.410Z,20.80
2022-08-17T01:30:56.662Z,20.80
2022-08-17T01:33:04.217Z,20.90
2022-08-17T01:35:30.977Z,20.80
2022-08-17T01:37:57.605Z,20.80
2022-08-17T01:40:35.812Z,20.80
2022-08-17T01:43:09.178Z,20.80
2022-08-17T01:45:42.589Z,20.80
2022-08-17T01:48:11.838Z,20.90
2022-08-17T01:50:41.517Z,20.80
2022-08-17T01:53:13.473Z,20.80
2022-08-17T01:55:59.831Z,20.80
2022-08-17T01:58:26.740Z,20.70
2022-08-17T02:01:00.841Z,20.80
2022-08-17T02:03:28.722Z,20.80
2022-08-17T02:05:55.504Z,20.80
2022-08-17T02:08:38.865Z,20.70
2022-08-17T02:11:11.714Z,20.70
2022-08-17T02:13:38.698Z,20.70
2022-08-17T02:16:05.807Z,20.60
2022-08-17T02:18:33.016Z,20.60
2022-08-17T02:20:59.972Z,20.60
2022-08-17T02:23:28.877Z,20.50
2022-08-17T02:25:58.907Z,20.50
2022-08-17T02:28:26.081Z,20.40
2022-08-17T02:31:01.669Z,20.40
2022-08-17T02:33:42.765Z,20.50
2022-08-17T02:36:12.749Z,20.50
2022-08-17T02:38:41.049Z,20.30
2022-08-17T02:41:07.972Z,20.30
2022-08-17T02:43:34.874Z,20.30
2022-08-17T02:46:01.815Z,20.30
2022-08-17T02:48:30.507Z,20.40
2022-08-17T02:51:00.029Z,20.30
2022-08-17T02:53:27.569Z,20.30
2022-08-17T02:56:00.485Z,20.20
2022-08-17T02:58:34.743Z,20.10
2022-08-17T03:01:07.213Z,20.10
2022-08-17T03:03:35.161Z,20.10
2022-08-17T03:06:01.887Z,20.10
2022-08-17T03:08:28.885Z,20.00
2022-08-17T03:10:55.849Z,20.00
2022-08-17T03:13:22.542Z,20.00
2022-08-17T03:15:50.492Z,20.00
2022-08-17T03:18:25.476Z,20.00
2022-08-17T03:21:01.121Z,20.00
2022-08-17T03:23:29.652Z,20.00
2022-08-17T03:25:57.934Z,20.10
2022-08-17T03:28:25.875Z,20.10
2022-08-17T03:30:52.605Z,20.00
2022-08-17T03:33:20.950Z,20.00
2022-08-17T03:35:47.932Z,19.90
2022-08-17T03:38:16.973Z,19.90
2022-08-17T03:40:58.526Z,19.90
2022-08-17T03:43:29.385Z,19.90
2022-08-17T03:46:33.929Z,20.00
2022-08-17T03:49:22.874Z,19.90
2022-08-17T03:52:08.278Z,19.90
2022-08-17T03:54:53.696Z,19.90
2022-08-17T03:57:20.712Z,19.70
2022-08-17T03:59:49.461Z,19.70
2022-08-17T04:02:21.320Z,19.70
2022-08-17T04:04:50.784Z,19.70
2022-08-17T04:07:19.443Z,19.90
2022-08-17T04:09:46.279Z,19.90
2022-08-17T04:12:16.008Z,19.80
2022-08-17T04:14:53.657Z,19.70
2022-08-17T04:17:28.062Z,19.60
2022-08-17T04:19:55.943Z,19.60
2022-08-17T04:22:32.737Z,19.50
2022-08-17T04:25:16.242Z,19.50
2022-08-17T04:27:42.905Z,19.30
2022-08-17T04:30:10.502Z,19.40
2022-08-17T04:33:03.988Z,19.40
2022-08-17T04:35:37.423Z,19.40
2022-08-17T04:38:04.890Z,19.40
2022-08-17T04:40:52.919Z,19.40
2022-08-17T04:43:23.078Z,19.40
2022-08-17T04:45:59.387Z,19.40
2022-08-17T04:48:35.530Z,19.40
2022-08-17T04:51:06.021Z,19.50
2022-08-17T04:53:32.727Z,19.60
2022-08-17T04:55:59.337Z,19.60
2022-08-17T04:58:26.049Z,19.60
2022-08-17T05:00:53.215Z,19.60
2022-08-17T05:03:20.147Z,19.50
2022-08-17T05:05:49.658Z,19.50
2022-08-17T05:08:18.930Z,19.60
2022-08-17T05:10:46.734Z,19.60
2022-08-17T05:13:23.179Z,19.70
2022-08-17T05:15:55.021Z,19.60
2022-08-17T05:18:22.258Z,19.60
2022-08-17T05:20:52.375Z,19.80
2022-08-17T05:23:22.195Z,19.90
2022-08-17T05:25:51.275Z,19.80
2022-08-17T05:28:22.911Z,19.80
2022-08-17T05:30:51.412Z,19.80
2022-08-17T05:33:21.843Z,19.90
2022-08-17T05:35:51.773Z,20.00
2022-08-17T05:38:20.977Z,20.10
2022-08-17T05:40:48.120Z,20.10
2022-08-17T05:43:23.897Z,20.40
2022-08-17T05:46:00.185Z,20.40
2022-08-17T05:48:39.690Z,20.50
2022-08-17T05:51:23.813Z,20.50
2022-08-17T05:53:59.635Z,20.60
2022-08-17T05:56:49.150Z,20.60
2022-08-17T05:59:29.274Z,20.70
2022-08-17T06:02:15.461Z,20.80
2022-08-17T06:04:48.316Z,20.90
2022-08-17T06:07:28.684Z,21.00
2022-08-17T06:10:00.638Z,21.00
2022-08-17T06:13:02.163Z,21.10
2022-08-17T06:15:43.349Z,21.10
2022-08-17T06:18:15.912Z,21.10
2022-08-17T06:20:47.295Z,21.10
2022-08-17T06:23:51.789Z,21.20
2022-08-17T06:26:27.507Z,21.30
2022-08-17T06:29:18.875Z,21.40
2022-08-17T06:31:46.812Z,21.40
2022-08-17T06:34:13.672Z,21.50
2022-08-17T06:37:09.020Z,21.60
2022-08-17T06:39:48.004Z,21.60
2022-08-17T06:42:54.861Z,21.60
2022-08-17T06:45:35.149Z,21.70
2022-08-17T06:48:24.806Z,21.80
2022-08-17T06:51:03.463Z,21.80
2022-08-17T06:53:36.884Z,21.80
2022-08-17T06:56:09.196Z,21.90
2022-08-17T06:58:40.214Z,22.00
2022-08-17T07:01:16.893Z,21.90
2022-08-17T07:03:57.524Z,22.00
2022-08-17T07:06:29.219Z,22.10
2022-08-17T07:08:58.188Z,22.10
2022-08-17T07:11:35.989Z,22.10
2022-08-17T07:14:39.868Z,22.20
2022-08-17T07:17:13.243Z,22.20
2022-08-17T07:19:47.507Z,22.40
2022-08-17T07:22:30.441Z,22.40
2022-08-17T07:25:18.377Z,22.40
2022-08-17T07:27:51.195Z,22.60
2022-08-17T07:30:27.044Z,22.60
2022-08-17T07:32:59.321Z,22.70
2022-08-17T07:35:37.615Z,22.80
2022-08-17T07:38:25.330Z,22.90
2022-08-17T07:40:57.494Z,23.10
2022-08-17T07:43:31.939Z,23.20
2022-08-17T07:46:23.652Z,23.20
2022-08-17T07:48:53.477Z,23.40
2022-08-17T07:51:44.269Z,23.50
2022-08-17T07:54:22.923Z,23.60
2022-08-17T07:56:55.711Z,23.60
2022-08-17T07:59:34.533Z,23.70
2022-08-17T08:02:14.687Z,23.70
2022-08-17T08:05:01.498Z,23.70
2022-08-17T08:07:34.583Z,24.60
2022-08-17T08:10:07.312Z,24.30
2022-08-17T08:12:47.239Z,24.00
2022-08-17T08:15:22.191Z,24.00
2022-08-17T08:17:53.998Z,23.90
2022-08-17T08:20:53.474Z,23.90
2022-08-17T08:23:33.523Z,23.90
2022-08-17T08:26:37.526Z,23.90
2022-08-17T08:29:28.169Z,23.80
2022-08-17T08:32:25.834Z,23.80
2022-08-17T08:35:32.386Z,23.80
2022-08-17T08:38:02.069Z,23.80
2022-08-17T08:40:40.262Z,23.90
2022-08-17T08:43:22.543Z,23.80
2022-08-17T08:46:21.261Z,23.90
2022-08-17T08:49:16.939Z,23.90
2022-08-17T08:51:55.491Z,24.00
2022-08-17T08:54:44.275Z,24.00
2022-08-17T08:57:26.432Z,23.90
2022-08-17T09:00:09.571Z,23.90
2022-08-17T09:03:02.946Z,23.80
2022-08-17T09:05:54.048Z,23.70
2022-08-17T09:08:29.602Z,23.60
2022-08-17T09:11:24.347Z,23.50
2022-08-17T09:14:22.115Z,23.60
2022-08-17T09:17:04.473Z,23.60
2022-08-17T09:19:35.154Z,23.70
2022-08-17T09:22:20.625Z,23.90
2022-08-17T09:24:57.067Z,23.70
2022-08-17T09:27:33.035Z,23.70
2022-08-17T09:30:04.064Z,23.70
2022-08-17T09:32:46.977Z,23.90
2022-08-17T09:35:25.067Z,23.90
2022-08-17T09:38:05.563Z,24.10
2022-08-17T09:40:57.052Z,24.20
2022-08-17T09:43:43.678Z,24.30
2022-08-17T09:46:18.437Z,24.40
2022-08-17T09:49:03.944Z,24.40
2022-08-17T09:51:35.824Z,24.40
2022-08-17T09:54:34.739Z,24.40
2022-08-17T09:57:28.633Z,24.40
2022-08-17T10:00:18.833Z,24.30
2022-08-17T10:03:16.277Z,24.30
2022-08-17T10:06:08.278Z,24.30
2022-08-17T10:08:51.852Z,24.40
2022-08-17T10:12:07.428Z,24.50
2022-08-17T10:14:43.773Z,24.60
2022-08-17T10:17:27.766Z,24.50
2022-08-17T10:20:06.228Z,24.70
2022-08-17T10:23:02.733Z,24.80
2022-08-17T10:25:55.276Z,25.10
2022-08-17T10:28:29.873Z,25.30
2022-08-17T10:31:23.253Z,25.60
2022-08-17T10:34:04.981Z,25.50
2022-08-17T10:36:37.792Z,25.60
2022-08-17T10:39:32.026Z,25.60
2022-08-17T10:42:16.001Z,25.70
2022-08-17T10:45:05.280Z,25.90
2022-08-17T10:48:07.873Z,26.10
2022-08-17T10:51:06.032Z,26.20
2022-08-17T10:53:32.596Z,26.40
2022-08-17T10:56:14.523Z,26.40
2022-08-17T10:59:00.752Z,26.20
2022-08-17T11:01:37.793Z,26.30
2022-08-17T11:04:08.420Z,26.40
2022-08-17T11:06:49.517Z,26.50
2022-08-17T11:09:19.868Z,26.30
2022-08-17T11:11:59.388Z,25.90
2022-08-17T11:14:52.571Z,26.00
2022-08-17T11:17:36.947Z,26.10
2022-08-17T11:20:35.665Z,26.00
2022-08-17T11:23:37.659Z,26.00
2022-08-17T11:26:26.459Z,25.90
2022-08-17T11:29:05.088Z,26.00
2022-08-17T11:31:38.498Z,26.00
2022-08-17T11:34:26.186Z,26.00
2022-08-17T11:37:11.207Z,26.00
2022-08-17T11:40:11.625Z,26.00
2022-08-17T11:43:00.444Z,26.00
2022-08-17T11:45:45.317Z,26.10
2022-08-17T11:48:53.735Z,26.10
2022-08-17T11:51:44.351Z,26.00
2022-08-17T11:54:34.357Z,26.20
2022-08-17T11:57:26.471Z,26.60
2022-08-17T11:59:59.091Z,26.50
2022-08-17T12:02:32.446Z,26.70
2022-08-17T12:05:05.100Z,26.70
2022-08-17T12:07:47.576Z,27.00
2022-08-17T12:10:17.498Z,27.00
2022-08-17T12:12:48.176Z,27.20
2022-08-17T12:15:18.775Z,27.40
2022-08-17T12:17:57.299Z,28.00
2022-08-17T12:20:33.263Z,28.10
2022-08-17T12:23:18.839Z,28.40
2022-08-17T12:26:00.890Z,28.40
2022-08-17T12:28:31.258Z,28.40
2022-08-17T12:31:05.750Z,28.70
2022-08-17T12:33:35.367Z,28.90
2022-08-17T12:36:06.269Z,28.90
2022-08-17T12:38:35.875Z,28.90
2022-08-17T12:41:25.025Z,29.50
2022-08-17T12:44:02.813Z,29.80
2022-08-17T12:46:48.987Z,30.30
2022-08-17T12:49:36.882Z,30.70
2022-08-17T12:52:17.652Z,30.90
2022-08-17T12:54:44.257Z,30.30
2022-08-17T12:57:40.904Z,30.20
2022-08-17T13:00:12.286Z,30.00
2022-08-17T13:02:57.382Z,30.00
2022-08-17T13:05:28.870Z,29.80
2022-08-17T13:07:57.927Z,29.90
2022-08-17T13:10:32.516Z,30.40
2022-08-17T13:13:03.650Z,30.00
2022-08-17T13:15:53.151Z,29.80
2022-08-17T13:18:31.499Z,29.70
2022-08-17T13:20:59.388Z,29.80
2022-08-17T13:23:29.134Z,29.90
2022-08-17T13:26:01.644Z,29.90
2022-08-17T13:28:35.500Z,30.10
2022-08-17T13:31:28.264Z,30.90
2022-08-17T13:34:18.208Z,31.30
2022-08-17T13:36:46.558Z,31.50
2022-08-17T13:39:25.606Z,31.40
2022-08-17T13:41:55.302Z,31.60
2022-08-17T13:44:39.558Z,32.00
2022-08-17T13:47:16.975Z,32.40
2022-08-17T13:49:49.271Z,32.70
2022-08-17T13:52:38.934Z,32.70
2022-08-17T13:55:19.217Z,32.50
2022-08-17T13:57:49.521Z,32.70
2022-08-17T14:00:33.606Z,32.30
2022-08-17T14:03:02.724Z,31.60
2022-08-17T14:05:30.976Z,31.30
2022-08-17T14:08:43.335Z,30.90
2022-08-17T14:11:09.996Z,30.60
2022-08-17T14:13:37.068Z,30.50
2022-08-17T14:16:03.864Z,30.60
2022-08-17T14:18:42.023Z,30.50
2022-08-17T14:21:17.499Z,30.50
2022-08-17T14:23:49.080Z,30.30
2022-08-17T14:26:20.973Z,30.40
2022-08-17T14:28:54.507Z,30.50
2022-08-17T14:31:21.954Z,30.80
2022-08-17T14:33:48.587Z,30.90
2022-08-17T14:36:15.205Z,30.60
2022-08-17T14:38:41.798Z,30.70
2022-08-17T14:41:08.737Z,31.00
2022-08-17T14:43:35.648Z,31.80
2022-08-17T14:46:02.358Z,32.20
2022-08-17T14:48:29.134Z,32.60
2022-08-17T14:50:58.850Z,32.80
2022-08-17T14:53:25.526Z,32.70
2022-08-17T14:55:52.241Z,32.90
2022-08-17T14:58:19.364Z,32.70
2022-08-17T15:00:46.034Z,32.90
2022-08-17T15:03:14.420Z,33.00
2022-08-17T15:05:41.398Z,33.20
2022-08-17T15:08:08.243Z,33.40
2022-08-17T15:10:35.858Z,33.40
2022-08-17T15:13:02.654Z,33.50
2022-08-17T15:15:29.818Z,33.90
2022-08-17T15:17:57.251Z,33.40
2022-08-17T15:20:27.869Z,33.20
2022-08-17T15:22:55.899Z,33.30
2022-08-17T15:25:25.071Z,33.40
2022-08-17T15:27:52.357Z,33.80
2022-08-17T15:30:20.041Z,33.70
2022-08-17T15:32:51.204Z,33.70
2022-08-17T15:35:28.076Z,33.80
2022-08-17T15:38:04.555Z,33.60
2022-08-17T15:40:31.572Z,33.80
2022-08-17T15:43:11.189Z,34.10
2022-08-17T15:45:39.108Z,34.60
2022-08-17T15:48:05.993Z,34.50
2022-08-17T15:50:32.885Z,34.40
2022-08-17T15:53:01.189Z,34.60
2022-08-17T15:55:30.198Z,34.60
2022-08-17T15:57:56.901Z,34.50
2022-08-17T16:00:24.056Z,34.40
2022-08-17T16:03:46.298Z,34.40
2022-08-17T16:05:37.836Z,34.10
2022-08-17T16:08:07.613Z,33.90
2022-08-17T16:10:35.029Z,33.70
2022-08-17T16:13:03.730Z,33.50
2022-08-17T16:15:31.440Z,33.20
2022-08-17T16:17:58.109Z,33.10
2022-08-17T16:20:24.696Z,32.90
2022-08-17T16:22:51.638Z,32.90
2022-08-17T16:25:51.985Z,33.00
2022-08-17T16:28:16.382Z,32.90
2022-08-17T16:30:43.536Z,32.60
2022-08-17T16:33:14.992Z,32.30
2022-08-17T16:35:42.040Z,32.00
2022-08-17T16:38:09.459Z,32.00
2022-08-17T16:40:36.448Z,32.00
2022-08-17T16:43:04.462Z,32.10
2022-08-17T16:45:39.865Z,31.90
2022-08-17T16:48:07.825Z,31.60
2022-08-17T16:50:37.592Z,31.40
2022-08-17T16:53:17.657Z,31.20
2022-08-17T16:55:45.965Z,31.10
2022-08-17T16:58:12.948Z,31.00
2022-08-17T17:00:41.766Z,30.70
2022-08-17T17:03:19.594Z,30.50
2022-08-17T17:05:55.205Z,30.40
2022-08-17T17:08:33.077Z,30.20
2022-08-17T17:11:09.163Z,30.00
2022-08-17T17:13:54.289Z,29.90
2022-08-17T17:16:26.617Z,29.80
2022-08-17T17:19:10.219Z,29.80
2022-08-17T17:21:43.785Z,29.70
2022-08-17T17:24:17.078Z,29.60
2022-08-17T17:27:07.312Z,29.70
2022-08-17T17:30:12.376Z,29.60
2022-08-17T17:33:01.617Z,29.60
2022-08-17T17:35:44.702Z,29.40
2022-08-17T17:38:18.730Z,29.30
2022-08-17T17:40:50.029Z,29.20
2022-08-17T17:43:38.937Z,29.10
2022-08-17T17:46:29.068Z,29.00
2022-08-17T17:49:00.326Z,29.00
2022-08-17T17:52:07.874Z,28.90
2022-08-17T17:55:05.377Z,28.80
2022-08-17T17:57:56.093Z,28.60
2022-08-17T18:00:54.798Z,28.50
2022-08-17T18:04:01.717Z,28.40
2022-08-17T18:06:46.434Z,28.40
2022-08-17T18:09:22.090Z,28.30
2022-08-17T18:12:12.049Z,28.20
2022-08-17T18:15:10.004Z,28.10
2022-08-17T18:17:39.501Z,28.10
2022-08-17T18:20:07.006Z,28.00
2022-08-17T18:22:34.068Z,27.90
2022-08-17T18:25:00.725Z,27.90
2022-08-17T18:27:38.707Z,27.80
2022-08-17T18:30:14.707Z,27.70
2022-08-17T18:32:43.558Z,27.50
2022-08-17T18:35:14.221Z,27.40
2022-08-17T18:37:44.828Z,27.30
2022-08-17T18:40:17.691Z,27.20
2022-08-17T18:42:59.811Z,27.10
2022-08-17T18:45:43.394Z,27.00
2022-08-17T18:48:27.935Z,26.90
2022-08-17T18:50:58.796Z,26.80
2022-08-17T18:53:39.467Z,26.70
2022-08-17T18:56:20.147Z,26.70
2022-08-17T18:59:24.593Z,26.70
2022-08-17T19:02:34.547Z,26.70
2022-08-17T19:05:36.704Z,26.70
2022-08-17T19:08:24.058Z,26.60
2022-08-17T19:11:17.453Z,26.50
2022-08-17T19:13:57.479Z,26.40
2022-08-17T19:16:29.202Z,26.40
2022-08-17T19:19:22.148Z,26.30
2022-08-17T19:21:54.721Z,26.20
2022-08-17T19:24:25.996Z,26.10
2022-08-17T19:27:20.484Z,26.00
2022-08-17T19:29:50.729Z,26.00
2022-08-17T19:32:21.953Z,25.90
2022-08-17T19:34:49.237Z,25.80
2022-08-17T19:37:34.174Z,25.80
2022-08-17T19:40:51.641Z,25.70
2022-08-17T19:43:42.353Z,25.40
2022-08-17T19:46:35.569Z,25.40
2022-08-17T19:49:33.415Z,25.50
2022-08-17T19:52:37.618Z,25.30
2022-08-17T19:55:20.601Z,25.30
2022-08-17T19:58:18.661Z,25.20
2022-08-17T20:00:51.056Z,25.10
2022-08-17T20:03:22.635Z,25.00
2022-08-17T20:06:11.935Z,24.80
2022-08-17T20:08:57.325Z,24.90
2022-08-17T20:11:58.367Z,24.80
2022-08-17T20:14:35.410Z,24.60
2022-08-17T20:17:03.222Z,24.80
2022-08-17T20:19:52.035Z,24.80
2022-08-17T20:22:59.229Z,24.80
2022-08-17T20:25:37.861Z,24.70
2022-08-17T20:28:28.694Z,24.40
2022-08-17T20:30:56.320Z,24.40
2022-08-17T20:33:34.174Z,24.30
2022-08-17T20:36:11.698Z,24.30
2022-08-17T20:38:43.898Z,24.30
2022-08-17T20:41:15.026Z,24.30
2022-08-17T20:43:47.940Z,24.30
2022-08-17T20:46:22.628Z,24.20
2022-08-17T20:48:53.527Z,24.20
2022-08-17T20:51:34.541Z,24.20
2022-08-17T20:54:07.635Z,24.00
2022-08-17T20:56:43.556Z,23.90
2022-08-17T20:59:31.572Z,24.00
2022-08-17T21:02:17.690Z,23.90
2022-08-17T21:04:54.777Z,23.90
2022-08-17T21:07:43.450Z,23.90
2022-08-17T21:10:15.815Z,23.80
2022-08-17T21:12:57.388Z,23.70
2022-08-17T21:15:34.833Z,23.60
2022-08-17T21:18:14.774Z,23.40
2022-08-17T21:21:07.235Z,23.30
2022-08-17T21:23:58.867Z,23.40
2022-08-17T21:26:50.696Z,23.30
2022-08-17T21:29:30.994Z,23.40
2022-08-17T21:31:59.300Z,23.20
2022-08-17T21:34:34.592Z,23.10
2022-08-17T21:37:21.030Z,23.00
2022-08-17T21:40:18.262Z,22.90
2022-08-17T21:42:52.660Z,22.80
2022-08-17T21:45:28.862Z,22.90
2022-08-17T21:48:13.794Z,22.90
2022-08-17T21:50:47.443Z,22.90
2022-08-17T21:53:33.085Z,22.90
2022-08-17T21:56:00.683Z,22.80
2022-08-17T21:58:34.128Z,22.90
2022-08-17T22:01:29.045Z,22.90
2022-08-17T22:04:00.660Z,22.90
2022-08-17T22:06:35.195Z,22.90
2022-08-17T22:09:06.837Z,23.00
2022-08-17T22:11:56.212Z,22.80
2022-08-17T22:14:52.448Z,22.80
2022-08-17T22:17:45.200Z,22.70
2022-08-17T22:20:18.566Z,22.80
2022-08-17T22:23:06.781Z,22.70
2022-08-17T22:25:37.465Z,22.70
2022-08-17T22:28:07.961Z,22.70
2022-08-17T22:30:43.705Z,22.80
2022-08-17T22:33:41.515Z,22.80
2022-08-17T22:36:25.932Z,22.70
2022-08-17T22:39:01.891Z,22.70
2022-08-17T22:42:02.351Z,22.70
2022-08-17T22:44:37.412Z,22.70
2022-08-17T22:47:22.049Z,22.60
2022-08-17T22:49:53.797Z,22.50
2022-08-17T22:52:31.588Z,22.60
2022-08-17T22:55:32.145Z,22.60
2022-08-17T22:58:18.594Z,22.70
2022-08-17T23:00:48.280Z,22.60
2022-08-17T23:03:23.592Z,22.60
2022-08-17T23:06:05.160Z,22.50
2022-08-17T23:08:35.856Z,22.50
2022-08-17T23:11:02.990Z,22.60
2022-08-17T23:13:33.290Z,22.50
2022-08-17T23:15:59.934Z,22.60
2022-08-17T23:18:27.248Z,22.60
2022-08-17T23:20:57.235Z,22.50
2022-08-17T23:23:26.377Z,22.40
2022-08-17T23:25:54.551Z,22.30
2022-08-17T23:28:21.732Z,22.30
2022-08-17T23:30:48.534Z,22.30
2022-08-17T23:33:29.739Z,22.20
2022-08-17T23:35:59.568Z,22.30
2022-08-17T23:38:27.462Z,22.30
2022-08-17T23:40:55.349Z,22.40
2022-08-17T23:43:25.261Z,22.40
2022-08-17T23:45:57.285Z,22.30
2022-08-17T23:48:32.483Z,22.30
2022-08-17T23:51:18.909Z,22.30
2022-08-17T23:53:49.913Z,22.20
2022-08-17T23:56:25.708Z,22.30
2022-08-17T23:58:54.727Z,22.30
